Terminal Aerodrome Forecast
Issued by NWS

Home | Current Version | Previous Version | Text Only | Print | Product List | Glossary On
Versions: 1 2 3 4 5 6 7 8 9 10 11 12 13 14 15 16 17 18 19 20 21
196
FTUS41 KPBZ 292322
TAFFKL
TAF
KFKL 292322Z 3000/3024 35005KT P6SM BKN010
      TEMPO 3000/3003 BKN008
     FM301000 VRB03KT 3SM BR BKN008
     FM301400 11005KT P6SM SCT035
     FM302000 13005KT P6SM BKN050
     FM302300 13008KT 5SM -RA OVC035
      AMD LTD TO CLD VIS AND WIND=

USA.gov is the U.S. government's official web portal to all federal, state and local government web resources and services.